sensor_id;sensor_type;location;lat;lon;timestamp;pressure;altitude;pressure_sealevel;temperature;humidity
72226;BME280;60130;52.250;5.048;2023-03-01T00:00:00;387.6;;;1.3;88.7
72226;BME280;60130;52.250;5.048;2023-03-01T00:05:00;387.8;;;1.6;88.7
72226;BME280;60130;52.250;5.048;2023-03-01T00:10:00;387.9;;;1.6;88.5
72226;BME280;60130;52.250;5.048;2023-03-01T00:15:00;387.8;;;1.6;88.0
72226;BME280;60130;52.250;5.048;2023-03-01T00:20:00;387.7;;;1.4;88.7
72226;BME280;60130;52.250;5.048;2023-03-01T00:25:00;387.8;;;1.6;89.5
72226;BME280;60130;52.250;5.048;2023-03-01T00:30:00;387.9;;;1.7;89.0
72226;BME280;60130;52.250;5.048;2023-03-01T00:35:00;387.9;;;1.7;89.0
72226;BME280;60130;52.250;5.048;2023-03-01T00:40:00;388.0;;;1.8;89.1
72226;BME280;60130;52.250;5.048;2023-03-01T00:45:00;388.0;;;1.9;88.6
72226;BME280;60130;52.250;5.048;2023-03-01T00:50:00;388.0;;;1.9;88.5
72226;BME280;60130;52.250;5.048;2023-03-01T00:55:00;388.0;;;1.9;88.3
72226;BME280;60130;52.250;5.048;2023-03-01T01:00:00;388.0;;;1.8;87.8
72226;BME280;60130;52.250;5.048;2023-03-01T01:05:00;387.9;;;1.7;88.1
72226;BME280;60130;52.250;5.048;2023-03-01T01:10:00;387.9;;;1.7;88.3
72226;BME280;60130;52.250;5.048;2023-03-01T01:15:00;388.0;;;1.8;88.3
72226;BME280;60130;52.250;5.048;2023-03-01T01:20:00;387.8;;;1.6;87.2
72226;BME280;60130;52.250;5.048;2023-03-01T01:25:00;387.5;;;1.0;86.6
72226;BME280;60130;52.250;5.048;2023-03-01T01:30:00;387.3;;;0.9;86.4
72226;BME280;60130;52.250;5.048;2023-03-01T01:35:00;387.2;;;0.9;87.8
72226;BME280;60130;52.250;5.048;2023-03-01T01:40:01;387.2;;;0.7;87.1
72226;BME280;60130;52.250;5.048;2023-03-01T01:50:00;unavailable;;;unavailable;unavailable
72226;BME280;60130;52.250;5.048;2023-03-01T01:55:03;unavailable;;;unavailable;unavailable
72226;BME280;60130;52.250;5.048;2023-03-01T02:00:05;unavailable;;;unavailable;unavailable
72226;BME280;60130;52.250;5.048;2023-03-01T02:05:06;386.6;;;-0.3;87.4
72226;BME280;60130;52.250;5.048;2023-03-01T02:10:00;386.6;;;-0.2;87.2
72226;BME280;60130;52.250;5.048;2023-03-01T02:15:00;386.6;;;-0.2;87.2
72226;BME280;60130;52.250;5.048;2023-03-01T02:20:07;386.6;;;-0.2;86.9
72226;BME280;60130;52.250;5.048;2023-03-01T02:25:07;386.6;;;-0.3;87.0
72226;BME280;60130;52.250;5.048;2023-03-01T02:30:00;386.6;;;-0.2;87.6
72226;BME280;60130;52.250;5.048;2023-03-01T02:35:01;386.6;;;-0.2;87.6
72226;BME280;60130;52.250;5.048;2023-03-01T02:40:04;386.6;;;-0.2;86.7
72226;BME280;60130;52.250;5.048;2023-03-01T02:45:00;386.5;;;-0.4;86.4
72226;BME280;60130;52.250;5.048;2023-03-01T02:50:00;386.4;;;-0.5;86.2
72226;BME280;60130;52.250;5.048;2023-03-01T02:55:03;386.4;;;-0.6;86.2
72226;BME280;60130;52.250;5.048;2023-03-01T03:00:03;386.4;;;-0.6;86.7
72226;BME280;60130;52.250;5.048;2023-03-01T03:05:00;386.4;;;-0.5;86.7
72226;BME280;60130;52.250;5.048;2023-03-01T03:10:00;386.4;;;-0.5;86.4
72226;BME280;60130;52.250;5.048;2023-03-01T03:15:00;386.4;;;-0.5;86.3
72226;BME280;60130;52.250;5.048;2023-03-01T03:20:00;386.4;;;-0.5;86.2
72226;BME280;60130;52.250;5.048;2023-03-01T03:25:00;386.4;;;-0.5;86.1
72226;BME280;60130;52.250;5.048;2023-03-01T03:30:00;386.4;;;-0.5;86.1
72226;BME280;60130;52.250;5.048;2023-03-01T03:35:00;386.4;;;-0.5;86.2
72226;BME280;60130;52.250;5.048;2023-03-01T03:40:00;386.4;;;-0.5;86.0
72226;BME280;60130;52.250;5.048;2023-03-01T03:45:00;386.3;;;-0.6;85.8
72226;BME280;60130;52.250;5.048;2023-03-01T03:50:00;386.3;;;-0.7;86.0
72226;BME280;60130;52.250;5.048;2023-03-01T03:55:00;386.3;;;-0.6;86.1
72226;BME280;60130;52.250;5.048;2023-03-01T04:00:00;386.4;;;-0.6;86.0
72226;BME280;60130;52.250;5.048;2023-03-01T04:05:00;386.3;;;-0.7;86.2
72226;BME280;60130;52.250;5.048;2023-03-01T04:10:00;386.2;;;-0.8;86.2
72226;BME280;60130;52.250;5.048;2023-03-01T04:15:00;386.0;;;-0.9;86.2
72226;BME280;60130;52.250;5.048;2023-03-01T04:20:00;386.0;;;-1.1;85.8
72226;BME280;60130;52.250;5.048;2023-03-01T04:25:00;386.0;;;-1.2;85.0
72226;BME280;60130;52.250;5.048;2023-03-01T04:30:00;385.9;;;-1.3;84.8
72226;BME280;60130;52.250;5.048;2023-03-01T04:35:00;385.8;;;-1.4;84.9
72226;BME280;60130;52.250;5.048;2023-03-01T04:40:00;385.8;;;-1.4;84.7
72226;BME280;60130;52.250;5.048;2023-03-01T04:45:00;385.8;;;-1.4;86.6
72226;BME280;60130;52.250;5.048;2023-03-01T04:50:00;385.8;;;-1.5;86.1
72226;BME280;60130;52.250;5.048;2023-03-01T04:55:00;385.6;;;-1.6;87.1
72226;BME280;60130;52.250;5.048;2023-03-01T05:00:00;385.7;;;-1.5;86.5
72226;BME280;60130;52.250;5.048;2023-03-01T05:05:00;385.7;;;-1.5;86.9
72226;BME280;60130;52.250;5.048;2023-03-01T05:10:00;385.7;;;-1.5;85.9
72226;BME280;60130;52.250;5.048;2023-03-01T05:15:00;385.7;;;-1.6;85.6
72226;BME280;60130;52.250;5.048;2023-03-01T05:20:00;385.7;;;-1.6;85.5
72226;BME280;60130;52.250;5.048;2023-03-01T05:25:00;385.7;;;-1.5;85.0
72226;BME280;60130;52.250;5.048;2023-03-01T05:30:00;385.6;;;-1.6;86.3
72226;BME280;60130;52.250;5.048;2023-03-01T05:35:00;385.8;;;-1.4;86.1
72226;BME280;60130;52.250;5.048;2023-03-01T05:40:00;385.9;;;-1.2;86.3
72226;BME280;60130;52.250;5.048;2023-03-01T05:45:00;385.8;;;-1.4;86.7
72226;BME280;60130;52.250;5.048;2023-03-01T05:50:00;385.6;;;-1.7;86.9
72226;BME280;60130;52.250;5.048;2023-03-01T05:55:00;385.5;;;-1.8;87.3
72226;BME280;60130;52.250;5.048;2023-03-01T06:00:00;385.7;;;-1.6;88.6
72226;BME280;60130;52.250;5.048;2023-03-01T06:05:00;385.8;;;-1.4;87.4
72226;BME280;60130;52.250;5.048;2023-03-01T06:10:00;385.8;;;-1.4;87.0
72226;BME280;60130;52.250;5.048;2023-03-01T06:15:00;385.6;;;-1.6;87.2
72226;BME280;60130;52.250;5.048;2023-03-01T06:20:00;385.5;;;-1.8;87.5
72226;BME280;60130;52.250;5.048;2023-03-01T06:25:00;385.5;;;-1.8;87.9
72226;BME280;60130;52.250;5.048;2023-03-01T06:30:00;385.6;;;-1.6;87.3
72226;BME280;60130;52.250;5.048;2023-03-01T06:35:00;385.7;;;-1.6;87.2
72226;BME280;60130;52.250;5.048;2023-03-01T06:40:00;385.6;;;-1.5;87.6
72226;BME280;60130;52.250;5.048;2023-03-01T06:45:00;385.7;;;-1.5;88.6
72226;BME280;60130;52.250;5.048;2023-03-01T06:50:00;385.7;;;-1.5;87.9
72226;BME280;60130;52.250;5.048;2023-03-01T06:55:00;386.0;;;-1.1;86.6
72226;BME280;60130;52.250;5.048;2023-03-01T07:00:00;386.0;;;-1.0;86.2
72226;BME280;60130;52.250;5.048;2023-03-01T07:05:00;386.1;;;-0.9;86.1
72226;BME280;60130;52.250;5.048;2023-03-01T07:10:00;386.2;;;-0.8;86.2
72226;BME280;60130;52.250;5.048;2023-03-01T07:15:00;386.3;;;-0.6;86.8
72226;BME280;60130;52.250;5.048;2023-03-01T07:20:00;386.5;;;-0.3;87.0
72226;BME280;60130;52.250;5.048;2023-03-01T07:25:00;386.6;;;-0.2;87.6
72226;BME280;60130;52.250;5.048;2023-03-01T07:30:00;386.8;;;0.1;87.9
72226;BME280;60130;52.250;5.048;2023-03-01T07:35:00;387.0;;;0.5;88.1
72226;BME280;60130;52.250;5.048;2023-03-01T07:40:00;387.3;;;0.8;87.6
72226;BME280;60130;52.250;5.048;2023-03-01T07:45:00;387.5;;;1.0;87.2
72226;BME280;60130;52.250;5.048;2023-03-01T07:50:00;387.6;;;1.2;87.4
72226;BME280;60130;52.250;5.048;2023-03-01T07:55:00;387.8;;;1.5;87.0
72226;BME280;60130;52.250;5.048;2023-03-01T08:00:00;387.7;;;1.4;87.3
72226;BME280;60130;52.250;5.048;2023-03-01T08:05:00;387.8;;;1.5;87.8
72226;BME280;60130;52.250;5.048;2023-03-01T08:10:00;387.8;;;1.5;88.0
72226;BME280;60130;52.250;5.048;2023-03-01T08:15:00;388.0;;;1.8;88.5
72226;BME280;60130;52.250;5.048;2023-03-01T08:20:00;388.0;;;1.9;88.5
72226;BME280;60130;52.250;5.048;2023-03-01T08:25:00;388.2;;;2.0;88.6
72226;BME280;60130;52.250;5.048;2023-03-01T08:30:00;388.3;;;2.3;88.5
72226;BME280;60130;52.250;5.048;2023-03-01T08:35:00;388.4;;;2.4;88.1
72226;BME280;60130;52.250;5.048;2023-03-01T08:40:00;388.5;;;2.5;87.8
72226;BME280;60130;52.250;5.048;2023-03-01T08:45:00;388.5;;;2.6;87.4
72226;BME280;60130;52.250;5.048;2023-03-01T08:50:00;388.7;;;2.8;86.9
72226;BME280;60130;52.250;5.048;2023-03-01T08:55:00;388.9;;;3.1;84.3
72226;BME280;60130;52.250;5.048;2023-03-01T09:00:00;389.0;;;3.2;82.6
72226;BME280;60130;52.250;5.048;2023-03-01T09:05:00;389.0;;;3.3;79.9
72226;BME280;60130;52.250;5.048;2023-03-01T09:10:00;389.3;;;3.8;80.8
72226;BME280;60130;52.250;5.048;2023-03-01T09:15:00;389.5;;;4.0;81.2
72226;BME280;60130;52.250;5.048;2023-03-01T09:20:00;389.5;;;4.0;78.1
72226;BME280;60130;52.250;5.048;2023-03-01T09:25:00;389.6;;;4.2;78.1
72226;BME280;60130;52.250;5.048;2023-03-01T09:30:00;389.7;;;4.4;76.0
72226;BME280;60130;52.250;5.048;2023-03-01T09:35:00;389.9;;;4.5;74.4
72226;BME280;60130;52.250;5.048;2023-03-01T09:40:00;390.0;;;4.7;74.9
72226;BME280;60130;52.250;5.048;2023-03-01T09:45:04;390.1;;;4.9;75.4
72226;BME280;60130;52.250;5.048;2023-03-01T09:50:05;390.1;;;5.0;74.8
72226;BME280;60130;52.250;5.048;2023-03-01T09:55:01;390.3;;;5.2;75.1
72226;BME280;60130;52.250;5.048;2023-03-01T10:00:10;390.4;;;5.3;72.7
72226;BME280;60130;52.250;5.048;2023-03-01T10:05:09;390.5;;;5.4;70.9
72226;BME280;60130;52.250;5.048;2023-03-01T10:10:00;390.6;;;5.6;68.4
72226;BME280;60130;52.250;5.048;2023-03-01T10:15:04;390.7;;;5.8;68.8
72226;BME280;60130;52.250;5.048;2023-03-01T10:20:13;390.8;;;5.8;67.3
72226;BME280;60130;52.250;5.048;2023-03-01T10:25:03;390.9;;;6.1;66.5
72226;BME280;60130;52.250;5.048;2023-03-01T10:30:07;391.0;;;6.1;65.7
72226;BME280;60130;52.250;5.048;2023-03-01T10:35:00;391.0;;;6.2;64.6
72226;BME280;60130;52.250;5.048;2023-03-01T10:40:03;391.0;;;6.2;63.6
72226;BME280;60130;52.250;5.048;2023-03-01T10:50:02;391.0;;;6.2;62.8
72226;BME280;60130;52.250;5.048;2023-03-01T10:55:03;391.1;;;6.3;61.3
72226;BME280;60130;52.250;5.048;2023-03-01T11:05:02;391.2;;;6.5;60.6
72226;BME280;60130;52.250;5.048;2023-03-01T11:10:11;391.3;;;6.6;60.0
72226;BME280;60130;52.250;5.048;2023-03-01T11:15:00;391.5;;;6.9;58.0
72226;BME280;60130;52.250;5.048;2023-03-01T11:20:02;391.4;;;6.8;56.3
72226;BME280;60130;52.250;5.048;2023-03-01T11:25:01;391.4;;;6.8;56.0
72226;BME280;60130;52.250;5.048;2023-03-01T11:30:05;391.5;;;6.9;55.9
72226;BME280;60130;52.250;5.048;2023-03-01T11:35:04;391.5;;;7.0;56.1
72226;BME280;60130;52.250;5.048;2023-03-01T11:40:10;391.5;;;6.9;57.2
72226;BME280;60130;52.250;5.048;2023-03-01T11:45:02;391.6;;;7.0;56.7
72226;BME280;60130;52.250;5.048;2023-03-01T11:50:05;391.6;;;7.0;55.2
72226;BME280;60130;52.250;5.048;2023-03-01T11:55:10;391.6;;;7.1;55.7
72226;BME280;60130;52.250;5.048;2023-03-01T12:00:07;391.7;;;7.2;56.3
72226;BME280;60130;52.250;5.048;2023-03-01T12:05:12;391.7;;;7.2;55.7
72226;BME280;60130;52.250;5.048;2023-03-01T12:10:16;391.8;;;7.3;55.8
72226;BME280;60130;52.250;5.048;2023-03-01T12:15:20;391.8;;;7.3;55.9
72226;BME280;60130;52.250;5.048;2023-03-01T12:20:09;391.8;;;7.4;56.1
72226;BME280;60130;52.250;5.048;2023-03-01T12:25:08;391.8;;;7.4;55.3
72226;BME280;60130;52.250;5.048;2023-03-01T12:30:09;391.9;;;7.5;55.8
72226;BME280;60130;52.250;5.048;2023-03-01T12:35:09;392.0;;;7.7;55.0
72226;BME280;60130;52.250;5.048;2023-03-01T12:40:15;392.0;;;7.6;55.4
72226;BME280;60130;52.250;5.048;2023-03-01T12:45:16;392.2;;;7.9;55.0
72226;BME280;60130;52.250;5.048;2023-03-01T12:50:03;392.2;;;8.0;53.5
72226;BME280;60130;52.250;5.048;2023-03-01T12:55:02;392.1;;;7.8;54.0
72226;BME280;60130;52.250;5.048;2023-03-01T13:00:06;392.1;;;7.9;53.4
72226;BME280;60130;52.250;5.048;2023-03-01T13:05:06;392.3;;;8.1;54.2
72226;BME280;60130;52.250;5.048;2023-03-01T13:10:10;392.1;;;7.8;52.5
72226;BME280;60130;52.250;5.048;2023-03-01T13:15:00;392.0;;;7.7;53.8
72226;BME280;60130;52.250;5.048;2023-03-01T13:20:00;392.1;;;7.9;53.2
72226;BME280;60130;52.250;5.048;2023-03-01T13:25:02;392.3;;;8.0;53.2
72226;BME280;60130;52.250;5.048;2023-03-01T13:30:00;392.4;;;8.2;52.9
72226;BME280;60130;52.250;5.048;2023-03-01T13:35:01;unavailable;;;unavailable;unavailable
72226;BME280;60130;52.250;5.048;2023-03-01T13:40:04;392.3;;;8.1;52.1
72226;BME280;60130;52.250;5.048;2023-03-01T13:45:00;unavailable;;;unavailable;unavailable
72226;BME280;60130;52.250;5.048;2023-03-01T13:50:02;392.5;;;8.4;53.0
72226;BME280;60130;52.250;5.048;2023-03-01T13:55:01;392.6;;;8.6;52.8
72226;BME280;60130;52.250;5.048;2023-03-01T14:00:00;392.7;;;8.6;52.2
72226;BME280;60130;52.250;5.048;2023-03-01T14:05:01;392.6;;;8.5;51.8
72226;BME280;60130;52.250;5.048;2023-03-01T14:10:03;392.5;;;8.3;52.2
72226;BME280;60130;52.250;5.048;2023-03-01T14:15:02;392.4;;;8.3;52.2
72226;BME280;60130;52.250;5.048;2023-03-01T14:20:07;392.3;;;8.1;53.9
72226;BME280;60130;52.250;5.048;2023-03-01T14:25:03;392.4;;;8.2;53.0
72226;BME280;60130;52.250;5.048;2023-03-01T14:30:01;392.4;;;8.2;52.4
72226;BME280;60130;52.250;5.048;2023-03-01T14:35:00;392.3;;;8.1;52.8
72226;BME280;60130;52.250;5.048;2023-03-01T14:40:04;392.3;;;8.1;52.8
72226;BME280;60130;52.250;5.048;2023-03-01T14:45:01;392.1;;;7.9;53.1
72226;BME280;60130;52.250;5.048;2023-03-01T14:50:03;392.1;;;7.9;53.1
72226;BME280;60130;52.250;5.048;2023-03-01T14:55:01;392.2;;;7.9;52.5
72226;BME280;60130;52.250;5.048;2023-03-01T15:00:03;392.1;;;7.8;53.2
72226;BME280;60130;52.250;5.048;2023-03-01T15:05:02;unavailable;;;unavailable;unavailable
72226;BME280;60130;52.250;5.048;2023-03-01T15:10:01;unavailable;;;unavailable;unavailable
72226;BME280;60130;52.250;5.048;2023-03-01T15:15:00;unavailable;;;unavailable;unavailable
72226;BME280;60130;52.250;5.048;2023-03-01T15:20:01;392.1;;;7.8;53.8
72226;BME280;60130;52.250;5.048;2023-03-01T15:25:00;392.1;;;7.8;52.2
72226;BME280;60130;52.250;5.048;2023-03-01T15:30:02;392.1;;;7.8;52.1
72226;BME280;60130;52.250;5.048;2023-03-01T15:35:33;392.0;;;7.7;53.0
72226;BME280;60130;52.250;5.048;2023-03-01T15:40:00;392.0;;;7.6;52.7
72226;BME280;60130;52.250;5.048;2023-03-01T15:45:08;392.0;;;7.6;52.8
72226;BME280;60130;52.250;5.048;2023-03-01T15:50:00;392.0;;;7.6;53.0
72226;BME280;60130;52.250;5.048;2023-03-01T15:55:03;391.9;;;7.5;53.8
72226;BME280;60130;52.250;5.048;2023-03-01T16:00:00;391.8;;;7.3;54.2
72226;BME280;60130;52.250;5.048;2023-03-01T16:05:00;391.8;;;7.4;53.9
72226;BME280;60130;52.250;5.048;2023-03-01T16:10:00;391.9;;;7.4;53.7
72226;BME280;60130;52.250;5.048;2023-03-01T16:15:00;391.8;;;7.4;54.4
72226;BME280;60130;52.250;5.048;2023-03-01T16:20:00;391.7;;;7.4;54.4
72226;BME280;60130;52.250;5.048;2023-03-01T16:25:00;391.6;;;7.1;55.8
72226;BME280;60130;52.250;5.048;2023-03-01T16:30:00;391.7;;;7.2;55.5
72226;BME280;60130;52.250;5.048;2023-03-01T16:35:00;391.6;;;7.1;55.4
72226;BME280;60130;52.250;5.048;2023-03-01T16:40:00;391.7;;;7.2;55.4
72226;BME280;60130;52.250;5.048;2023-03-01T16:45:00;391.4;;;6.7;56.5
72226;BME280;60130;52.250;5.048;2023-03-01T16:50:00;391.3;;;6.6;57.3
72226;BME280;60130;52.250;5.048;2023-03-01T16:55:01;391.1;;;6.4;58.1
72226;BME280;60130;52.250;5.048;2023-03-01T17:00:00;391.0;;;6.2;58.4
72226;BME280;60130;52.250;5.048;2023-03-01T17:05:01;391.0;;;6.2;58.8
72226;BME280;60130;52.250;5.048;2023-03-01T17:10:00;391.0;;;6.1;59.3
72226;BME280;60130;52.250;5.048;2023-03-01T17:15:00;390.9;;;6.0;60.1
72226;BME280;60130;52.250;5.048;2023-03-01T17:20:00;390.8;;;6.0;60.3
72226;BME280;60130;52.250;5.048;2023-03-01T17:25:00;390.8;;;5.8;60.9
72226;BME280;60130;52.250;5.048;2023-03-01T17:30:00;390.6;;;5.6;62.2
72226;BME280;60130;52.250;5.048;2023-03-01T17:35:00;unavailable;;;unavailable;unavailable
72226;BME280;60130;52.250;5.048;2023-03-01T17:40:00;390.5;;;5.5;62.8
72226;BME280;60130;52.250;5.048;2023-03-01T17:45:00;390.5;;;5.4;63.7
72226;BME280;60130;52.250;5.048;2023-03-01T17:50:00;390.5;;;5.4;63.9
72226;BME280;60130;52.250;5.048;2023-03-01T17:55:00;390.5;;;5.4;64.1
72226;BME280;60130;52.250;5.048;2023-03-01T18:00:00;390.4;;;5.4;64.5
72226;BME280;60130;52.250;5.048;2023-03-01T18:05:00;390.4;;;5.3;64.9
72226;BME280;60130;52.250;5.048;2023-03-01T18:10:00;390.4;;;5.2;65.3
72226;BME280;60130;52.250;5.048;2023-03-01T18:15:00;390.3;;;5.2;65.5
72226;BME280;60130;52.250;5.048;2023-03-01T18:20:00;390.3;;;5.2;65.8
72226;BME280;60130;52.250;5.048;2023-03-01T18:25:00;390.3;;;5.2;66.1
72226;BME280;60130;52.250;5.048;2023-03-01T18:30:00;390.2;;;5.1;66.4
72226;BME280;60130;52.250;5.048;2023-03-01T18:35:00;390.1;;;4.9;66.7
72226;BME280;60130;52.250;5.048;2023-03-01T18:40:00;390.1;;;4.9;67.3
72226;BME280;60130;52.250;5.048;2023-03-01T18:45:00;390.1;;;4.7;67.3
72226;BME280;60130;52.250;5.048;2023-03-01T18:50:00;389.9;;;4.6;68.1
72226;BME280;60130;52.250;5.048;2023-03-01T18:55:00;unavailable;;;unavailable;unavailable
72226;BME280;60130;52.250;5.048;2023-03-01T19:00:00;unavailable;;;unavailable;unavailable
72226;BME280;60130;52.250;5.048;2023-03-01T19:05:00;unavailable;;;unavailable;unavailable
72226;BME280;60130;52.250;5.048;2023-03-01T19:10:00;unavailable;;;unavailable;unavailable
72226;BME280;60130;52.250;5.048;2023-03-01T19:15:00;unavailable;;;unavailable;unavailable
72226;BME280;60130;52.250;5.048;2023-03-01T19:20:00;389.7;;;4.3;69.4
72226;BME280;60130;52.250;5.048;2023-03-01T19:25:00;389.7;;;4.3;69.5
72226;BME280;60130;52.250;5.048;2023-03-01T19:30:00;389.7;;;4.2;70.0
72226;BME280;60130;52.250;5.048;2023-03-01T19:35:00;389.7;;;4.3;70.1
72226;BME280;60130;52.250;5.048;2023-03-01T19:40:00;389.7;;;4.3;70.5
72226;BME280;60130;52.250;5.048;2023-03-01T19:45:00;389.7;;;4.2;71.0
72226;BME280;60130;52.250;5.048;2023-03-01T19:50:00;389.6;;;4.1;71.5
72226;BME280;60130;52.250;5.048;2023-03-01T19:55:00;389.5;;;4.0;72.0
72226;BME280;60130;52.250;5.048;2023-03-01T20:00:00;389.5;;;4.0;72.1
72226;BME280;60130;52.250;5.048;2023-03-01T20:05:00;389.5;;;3.9;72.5
72226;BME280;60130;52.250;5.048;2023-03-01T20:10:01;389.4;;;3.8;72.5
72226;BME280;60130;52.250;5.048;2023-03-01T20:15:00;389.3;;;3.7;72.9
72226;BME280;60130;52.250;5.048;2023-03-01T20:20:00;389.2;;;3.7;73.0
72226;BME280;60130;52.250;5.048;2023-03-01T20:25:00;389.2;;;3.7;73.0
72226;BME280;60130;52.250;5.048;2023-03-01T20:30:00;389.1;;;3.7;73.0
72226;BME280;60130;52.250;5.048;2023-03-01T20:35:00;unavailable;;;unavailable;unavailable
72226;BME280;60130;52.250;5.048;2023-03-01T20:40:00;388.9;;;3.1;74.3
72226;BME280;60130;52.250;5.048;2023-03-01T20:45:00;388.9;;;3.1;74.6
72226;BME280;60130;52.250;5.048;2023-03-01T20:50:00;388.9;;;3.1;74.4
72226;BME280;60130;52.250;5.048;2023-03-01T20:55:00;388.9;;;3.1;74.1
72226;BME280;60130;52.250;5.048;2023-03-01T21:00:00;388.8;;;3.1;74.5
72226;BME280;60130;52.250;5.048;2023-03-01T21:05:00;388.9;;;3.2;74.0
72226;BME280;60130;52.250;5.048;2023-03-01T21:10:00;388.9;;;3.2;73.9
72226;BME280;60130;52.250;5.048;2023-03-01T21:15:00;389.0;;;3.2;73.8
72226;BME280;60130;52.250;5.048;2023-03-01T21:20:00;389.0;;;3.3;73.4
72226;BME280;60130;52.250;5.048;2023-03-01T21:25:00;389.0;;;3.4;73.1
72226;BME280;60130;52.250;5.048;2023-03-01T21:30:00;389.0;;;3.4;73.1
72226;BME280;60130;52.250;5.048;2023-03-01T21:35:00;389.1;;;3.4;72.9
72226;BME280;60130;52.250;5.048;2023-03-01T21:40:00;389.1;;;3.4;72.8
72226;BME280;60130;52.250;5.048;2023-03-01T21:45:00;389.1;;;3.4;72.9
72226;BME280;60130;52.250;5.048;2023-03-01T21:50:00;389.1;;;3.4;73.2
72226;BME280;60130;52.250;5.048;2023-03-01T21:55:00;unavailable;;;3.5;unavailable
72226;BME280;60130;52.250;5.048;2023-03-01T22:00:00;389.2;;;3.6;76.2
72226;BME280;60130;52.250;5.048;2023-03-01T22:05:00;389.2;;;3.5;76.5
72226;BME280;60130;52.250;5.048;2023-03-01T22:10:00;389.2;;;3.5;77.9
72226;BME280;60130;52.250;5.048;2023-03-01T22:15:00;389.1;;;3.5;77.8
72226;BME280;60130;52.250;5.048;2023-03-01T22:20:00;389.1;;;3.4;78.1
72226;BME280;60130;52.250;5.048;2023-03-01T22:25:00;unavailable;;;unavailable;unavailable
72226;BME280;60130;52.250;5.048;2023-03-01T22:30:00;389.0;;;3.3;78.8
72226;BME280;60130;52.250;5.048;2023-03-01T22:35:00;389.0;;;3.3;78.9
72226;BME280;60130;52.250;5.048;2023-03-01T22:40:00;389.0;;;3.4;79.5
72226;BME280;60130;52.250;5.048;2023-03-01T22:45:00;389.0;;;3.3;80.0
72226;BME280;60130;52.250;5.048;2023-03-01T22:50:00;unavailable;;;unavailable;unavailable
72226;BME280;60130;52.250;5.048;2023-03-01T22:55:00;388.9;;;3.2;81.8
72226;BME280;60130;52.250;5.048;2023-03-01T23:00:00;388.9;;;3.2;82.8
72226;BME280;60130;52.250;5.048;2023-03-01T23:05:00;unavailable;;;unavailable;unavailable
72226;BME280;60130;52.250;5.048;2023-03-01T23:10:00;388.8;;;3.0;83.8
72226;BME280;60130;52.250;5.048;2023-03-01T23:15:00;388.8;;;3.0;84.5
72226;BME280;60130;52.250;5.048;2023-03-01T23:20:00;388.8;;;3.0;85.2
72226;BME280;60130;52.250;5.048;2023-03-01T23:25:00;388.8;;;2.9;85.8
72226;BME280;60130;52.250;5.048;2023-03-01T23:30:00;388.8;;;3.0;86.4
72226;BME280;60130;52.250;5.048;2023-03-01T23:35:00;388.7;;;2.9;86.2
72226;BME280;60130;52.250;5.048;2023-03-01T23:40:00;388.7;;;2.8;86.8
72226;BME280;60130;52.250;5.048;2023-03-01T23:45:00;388.7;;;2.8;86.8
72226;BME280;60130;52.250;5.048;2023-03-01T23:50:00;388.6;;;2.7;87.3
72226;BME280;60130;52.250;5.048;2023-03-01T23:55:00;388.6;;;2.7;87.5
